createdAt,value
2023-04-20T00:01:50.839Z,53.52
2023-04-20T00:04:18.798Z,54.07
2023-04-20T00:06:46.741Z,54.51
2023-04-20T00:09:16.405Z,54.53
2023-04-20T00:11:44.472Z,54.77
2023-04-20T00:14:12.405Z,54.85
2023-04-20T00:16:40.580Z,54.89
2023-04-20T00:19:09.375Z,54.66
2023-04-20T00:21:37.272Z,54.48
2023-04-20T00:24:05.562Z,54.67
2023-04-20T00:26:35.083Z,54.55
2023-04-20T00:29:03.624Z,54.22
2023-04-20T00:31:32.577Z,54.42
2023-04-20T00:34:00.606Z,54.53
2023-04-20T00:36:28.485Z,54.58
2023-04-20T00:38:56.758Z,54.73
2023-04-20T00:41:24.857Z,54.43
2023-04-20T00:43:54.300Z,54.88
2023-04-20T00:46:22.430Z,54.92
2023-04-20T00:48:50.977Z,55.25
2023-04-20T00:51:18.984Z,55.23
2023-04-20T00:53:46.952Z,55.47
2023-04-20T00:56:15.092Z,55.44
2023-04-20T00:58:43.547Z,55.36
2023-04-20T01:01:13.125Z,55.81
2023-04-20T01:03:41.266Z,55.30
2023-04-20T01:06:09.308Z,55.55
2023-04-20T01:08:37.256Z,55.52
2023-04-20T01:11:05.232Z,55.70
2023-04-20T01:13:33.143Z,55.48
2023-04-20T01:16:01.440Z,55.79
2023-04-20T01:18:30.854Z,55.72
2023-04-20T01:20:58.738Z,55.83
2023-04-20T01:23:28.171Z,56.16
2023-04-20T01:25:56.097Z,56.41
2023-04-20T01:28:24.258Z,56.50
2023-04-20T01:30:52.286Z,56.08
2023-04-20T01:33:20.174Z,55.79
2023-04-20T01:35:48.341Z,55.53
2023-04-20T01:38:19.364Z,55.89
2023-04-20T01:40:48.667Z,55.63
2023-04-20T01:43:18.698Z,55.67
2023-04-20T01:45:46.686Z,55.64
2023-04-20T01:48:15.150Z,55.51
2023-04-20T01:50:43.039Z,55.84
2023-04-20T01:53:10.954Z,55.58
2023-04-20T01:55:38.965Z,55.62
2023-04-20T01:58:08.209Z,55.65
2023-04-20T02:00:36.162Z,55.46
2023-04-20T02:03:04.380Z,55.20
2023-04-20T02:05:32.386Z,55.57
2023-04-20T02:08:00.286Z,55.31
2023-04-20T02:10:28.325Z,55.23
2023-04-20T02:12:56.233Z,55.40
2023-04-20T02:15:25.496Z,55.47
2023-04-20T02:17:53.532Z,55.86
2023-04-20T02:20:21.490Z,56.02
2023-04-20T02:22:49.598Z,55.75
2023-04-20T02:25:17.476Z,55.52
2023-04-20T02:27:45.430Z,55.54
2023-04-20T02:30:14.128Z,55.44
2023-04-20T02:32:43.641Z,56.10
2023-04-20T02:35:11.659Z,55.96
2023-04-20T02:37:39.609Z,55.96
2023-04-20T02:40:08.745Z,55.81
2023-04-20T02:42:36.672Z,55.89
2023-04-20T02:45:05.334Z,56.45
2023-04-20T02:47:33.284Z,56.55
2023-04-20T02:50:02.624Z,56.18
2023-04-20T02:52:30.670Z,56.08
2023-04-20T02:54:58.572Z,55.85
2023-04-20T02:57:26.572Z,56.33
2023-04-20T02:59:54.467Z,56.26
2023-04-20T03:02:22.699Z,56.20
2023-04-20T03:04:50.793Z,56.21
2023-04-20T03:07:20.175Z,56.45
2023-04-20T03:09:48.085Z,56.18
2023-04-20T03:12:16.092Z,56.58
2023-04-20T03:14:43.921Z,56.19
2023-04-20T03:17:11.975Z,56.22
2023-04-20T03:19:39.913Z,56.15
2023-04-20T03:22:07.895Z,56.03
2023-04-20T03:24:37.256Z,55.88
2023-04-20T03:27:05.455Z,56.27
2023-04-20T03:29:33.369Z,56.34
2023-04-20T03:32:01.305Z,56.34
2023-04-20T03:34:29.398Z,56.16
2023-04-20T03:36:57.382Z,56.11
2023-04-20T03:39:25.343Z,56.24
2023-04-20T03:41:54.636Z,56.00
2023-04-20T03:44:22.534Z,56.05
2023-04-20T03:46:51.095Z,56.16
2023-04-20T03:49:22.619Z,56.16
2023-04-20T03:51:50.536Z,55.78
2023-04-20T03:54:18.397Z,56.34
2023-04-20T03:56:46.580Z,57.36
2023-04-20T03:59:16.074Z,57.36
2023-04-20T04:01:44.226Z,57.45
2023-04-20T04:04:12.344Z,57.23
2023-04-20T04:06:40.420Z,57.42
2023-04-20T04:09:08.952Z,57.23
2023-04-20T04:11:36.767Z,58.10
2023-04-20T04:14:05.240Z,57.56
2023-04-20T04:16:34.586Z,58.11
2023-04-20T04:19:02.529Z,57.69
2023-04-20T04:21:30.856Z,57.48
2023-04-20T04:23:59.059Z,57.47
2023-04-20T04:26:26.982Z,57.20
2023-04-20T04:28:55.358Z,57.19
2023-04-20T04:31:23.609Z,57.46
2023-04-20T04:33:53.054Z,57.04
2023-04-20T04:36:21.625Z,57.29
2023-04-20T04:38:49.753Z,57.22
2023-04-20T04:41:17.757Z,57.02
2023-04-20T04:43:46.064Z,57.18
2023-04-20T04:46:14.596Z,56.94
2023-04-20T04:48:43.431Z,57.32
2023-04-20T04:51:12.836Z,56.80
2023-04-20T04:53:45.041Z,57.10
2023-04-20T04:56:13.337Z,57.15
2023-04-20T04:58:41.505Z,57.34
2023-04-20T05:01:09.427Z,57.46
2023-04-20T05:03:37.554Z,57.63
2023-04-20T05:06:05.736Z,57.39
2023-04-20T05:08:35.110Z,57.44
2023-04-20T05:11:03.149Z,55.90
2023-04-20T05:13:31.151Z,55.21
2023-04-20T05:15:59.074Z,54.39
2023-04-20T05:18:27.080Z,53.81
2023-04-20T05:20:55.268Z,52.85
2023-04-20T05:23:23.196Z,52.57
2023-04-20T05:25:52.560Z,52.19
2023-04-20T05:28:21.090Z,53.08
2023-04-20T05:30:49.007Z,53.26
2023-04-20T05:33:17.121Z,52.98
2023-04-20T05:35:45.231Z,53.19
2023-04-20T05:38:13.244Z,53.04
2023-04-20T05:40:41.169Z,53.44
2023-04-20T05:43:10.470Z,53.08
2023-04-20T05:45:38.430Z,53.54
2023-04-20T05:48:06.775Z,53.47
2023-04-20T05:50:34.726Z,53.63
2023-04-20T05:53:02.628Z,53.38
2023-04-20T05:55:30.683Z,53.91
2023-04-20T05:57:58.605Z,53.65
2023-04-20T06:00:28.128Z,53.62
2023-04-20T06:02:56.263Z,53.87
2023-04-20T06:05:24.489Z,53.69
2023-04-20T06:07:53.108Z,54.08
2023-04-20T06:10:21.262Z,54.21
2023-04-20T06:12:49.152Z,53.72
2023-04-20T06:15:17.222Z,54.18
2023-04-20T06:17:46.593Z,53.60
2023-04-20T06:20:14.603Z,54.19
2023-04-20T06:22:45.437Z,54.01
2023-04-20T06:25:13.431Z,54.28
2023-04-20T06:27:41.455Z,53.90
2023-04-20T06:30:10.262Z,53.33
2023-04-20T06:32:38.967Z,53.35
2023-04-20T06:35:09.505Z,53.34
2023-04-20T06:37:37.668Z,53.28
2023-04-20T06:40:08.220Z,53.15
2023-04-20T06:42:36.620Z,53.46
2023-04-20T06:45:05.063Z,53.33
2023-04-20T06:47:33.803Z,53.37
2023-04-20T06:50:01.890Z,53.41
2023-04-20T06:52:32.026Z,53.15
2023-04-20T06:55:00.423Z,53.38
2023-04-20T06:57:28.493Z,53.13
2023-04-20T06:59:56.486Z,53.12
2023-04-20T07:02:24.824Z,53.14
2023-04-20T07:04:53.006Z,53.07
2023-04-20T07:07:21.127Z,52.91
2023-04-20T07:09:50.496Z,52.84
2023-04-20T07:12:18.447Z,53.15
2023-04-20T07:14:46.400Z,52.88
2023-04-20T07:17:14.493Z,52.63
2023-04-20T07:19:42.459Z,52.73
2023-04-20T07:22:10.467Z,52.61
2023-04-20T07:24:38.412Z,53.07
2023-04-20T07:27:08.614Z,52.68
2023-04-20T07:29:36.507Z,52.50
2023-04-20T07:32:04.609Z,52.46
2023-04-20T07:34:32.574Z,52.43
2023-04-20T07:37:00.501Z,52.51
2023-04-20T07:39:30.270Z,52.92
2023-04-20T07:41:58.185Z,52.44
2023-04-20T07:44:27.538Z,52.57
2023-04-20T07:46:57.885Z,52.87
2023-04-20T07:49:26.122Z,52.54
2023-04-20T07:51:58.623Z,52.51
2023-04-20T07:54:32.351Z,52.40
2023-04-20T07:57:01.456Z,52.80
2023-04-20T07:59:30.819Z,52.44
2023-04-20T08:02:01.308Z,52.71
2023-04-20T08:04:29.571Z,52.39
2023-04-20T08:06:57.771Z,52.20
2023-04-20T08:09:26.538Z,52.63
2023-04-20T08:11:54.505Z,52.53
2023-04-20T08:14:22.445Z,52.38
2023-04-20T08:16:51.767Z,52.67
2023-04-20T08:19:19.726Z,52.35
2023-04-20T08:21:47.752Z,52.41
2023-04-20T08:24:16.062Z,52.65
2023-04-20T08:26:44.573Z,52.30
2023-04-20T08:29:12.478Z,52.19
2023-04-20T08:31:40.468Z,52.07
2023-04-20T08:34:09.866Z,52.12
2023-04-20T08:36:37.824Z,52.44
2023-04-20T08:39:10.268Z,52.32
2023-04-20T08:41:38.212Z,52.12
2023-04-20T08:44:06.386Z,52.09
2023-04-20T08:46:34.544Z,52.01
2023-04-20T08:49:02.712Z,52.07
2023-04-20T08:51:32.658Z,52.02
2023-04-20T08:54:05.353Z,52.01
2023-04-20T08:56:36.052Z,52.14
2023-04-20T08:59:05.410Z,52.11
2023-04-20T09:01:36.160Z,52.15
2023-04-20T09:04:05.623Z,52.12
2023-04-20T09:06:35.067Z,52.30
2023-04-20T09:09:03.067Z,52.39
2023-04-20T09:11:31.022Z,52.22
2023-04-20T09:14:00.070Z,52.12
2023-04-20T09:16:28.236Z,52.00
2023-04-20T09:18:56.642Z,52.14
2023-04-20T09:21:26.705Z,52.07
2023-04-20T09:23:59.708Z,51.81
2023-04-20T09:26:27.728Z,52.10
2023-04-20T09:28:56.109Z,51.56
2023-04-20T09:31:24.404Z,51.61
2023-04-20T09:34:01.593Z,51.67
2023-04-20T09:36:39.177Z,51.56
2023-04-20T09:39:10.230Z,51.75
2023-04-20T09:41:38.640Z,51.89
2023-04-20T09:44:06.781Z,51.45
2023-04-20T09:46:35.591Z,51.55
2023-04-20T09:49:04.657Z,51.29
2023-04-20T09:51:33.535Z,51.72
2023-04-20T09:54:02.144Z,51.53
2023-04-20T09:56:31.515Z,51.59
2023-04-20T09:59:01.222Z,51.33
2023-04-20T10:01:31.311Z,51.45
2023-04-20T10:03:59.771Z,51.01
2023-04-20T10:06:28.939Z,50.98
2023-04-20T10:08:56.838Z,51.14
2023-04-20T10:11:34.286Z,50.98
2023-04-20T10:14:18.342Z,50.81
2023-04-20T10:17:00.335Z,51.09
2023-04-20T10:19:38.025Z,50.84
2023-04-20T10:22:06.108Z,50.65
2023-04-20T10:24:34.032Z,50.38
2023-04-20T10:27:02.880Z,50.04
2023-04-20T10:29:33.541Z,49.78
2023-04-20T10:32:02.380Z,50.05
2023-04-20T10:34:33.312Z,50.65
2023-04-20T10:37:10.982Z,50.48
2023-04-20T10:39:44.545Z,50.74
2023-04-20T10:42:12.441Z,50.58
2023-04-20T10:44:49.974Z,51.38
2023-04-20T10:47:17.963Z,52.08
2023-04-20T10:49:46.006Z,51.43
2023-04-20T10:52:14.185Z,51.22
2023-04-20T10:54:44.922Z,50.90
2023-04-20T10:57:17.371Z,51.08
2023-04-20T10:59:46.925Z,51.12
2023-04-20T11:02:16.570Z,51.05
2023-04-20T11:04:44.717Z,50.32
2023-04-20T11:07:13.565Z,50.58
2023-04-20T11:09:42.849Z,50.58
2023-04-20T11:12:14.688Z,50.29
2023-04-20T11:14:52.307Z,50.23
2023-04-20T11:17:21.692Z,50.55
2023-04-20T11:19:49.716Z,50.71
2023-04-20T11:22:26.829Z,51.05
2023-04-20T11:25:05.514Z,51.09
2023-04-20T11:27:33.591Z,50.95
2023-04-20T11:30:05.575Z,50.75
2023-04-20T11:32:35.209Z,50.51
2023-04-20T11:35:07.038Z,50.84
2023-04-20T11:37:35.569Z,50.78
2023-04-20T11:40:08.493Z,50.72
2023-04-20T11:42:36.663Z,50.65
2023-04-20T11:45:05.280Z,50.89
2023-04-20T11:47:34.761Z,50.71
2023-04-20T11:50:02.800Z,50.68
2023-04-20T11:52:30.709Z,50.62
2023-04-20T11:54:58.634Z,50.40
2023-04-20T11:57:26.719Z,50.29
2023-04-20T11:59:54.622Z,50.07
2023-04-20T12:02:22.892Z,49.94
2023-04-20T12:04:52.482Z,49.67
2023-04-20T12:07:20.473Z,49.71
2023-04-20T12:09:49.042Z,49.61
2023-04-20T12:12:17.672Z,49.89
2023-04-20T12:14:45.681Z,49.33
2023-04-20T12:17:14.037Z,49.63
2023-04-20T12:19:41.931Z,49.47
2023-04-20T12:22:11.276Z,49.54
2023-04-20T12:24:39.443Z,49.67
2023-04-20T12:27:07.737Z,49.51
2023-04-20T12:29:35.865Z,49.75
2023-04-20T12:32:03.827Z,50.32
2023-04-20T12:34:31.823Z,50.42
2023-04-20T12:36:59.762Z,50.00
2023-04-20T12:39:29.630Z,50.47
2023-04-20T12:41:58.052Z,50.17
2023-04-20T12:44:26.061Z,50.32
2023-04-20T12:46:54.033Z,50.27
2023-04-20T12:49:22.099Z,50.59
2023-04-20T12:51:50.055Z,50.71
2023-04-20T12:54:18.376Z,50.34
2023-04-20T12:56:47.926Z,50.68
2023-04-20T12:59:15.969Z,50.84
2023-04-20T13:01:44.033Z,50.67
2023-04-20T13:04:12.119Z,50.76
2023-04-20T13:06:40.099Z,50.46
2023-04-20T13:09:08.011Z,50.43
2023-04-20T13:11:36.013Z,50.12
2023-04-20T13:14:05.738Z,50.23
2023-04-20T13:16:33.789Z,50.02
2023-04-20T13:19:01.818Z,49.87
2023-04-20T13:21:29.720Z,49.59
2023-04-20T13:23:57.675Z,49.55
2023-04-20T13:26:25.560Z,49.68
2023-04-20T13:28:54.298Z,49.71
2023-04-20T13:31:23.669Z,49.25
2023-04-20T13:33:54.701Z,49.59
2023-04-20T13:36:22.932Z,49.52
2023-04-20T13:38:54.344Z,49.35
2023-04-20T13:41:23.634Z,49.52
2023-04-20T13:43:51.731Z,49.43
2023-04-20T13:46:20.078Z,49.33
2023-04-20T13:48:49.556Z,49.65
2023-04-20T13:51:17.452Z,49.52
2023-04-20T13:53:45.342Z,49.19
2023-04-20T13:56:13.482Z,49.61
2023-04-20T13:58:41.577Z,49.35
2023-04-20T14:01:09.812Z,49.58
2023-04-20T14:03:37.795Z,49.36
2023-04-20T14:06:07.778Z,49.35
2023-04-20T14:08:36.279Z,49.40
2023-04-20T14:11:04.635Z,49.39
2023-04-20T14:13:32.608Z,49.55
2023-04-20T14:16:00.670Z,49.29
2023-04-20T14:18:28.760Z,49.04
2023-04-20T14:20:56.769Z,49.27
2023-04-20T14:23:26.662Z,49.30
2023-04-20T14:25:54.564Z,49.25
2023-04-20T14:28:22.502Z,49.25
2023-04-20T14:30:51.333Z,48.93
2023-04-20T14:33:19.771Z,48.90
2023-04-20T14:35:47.688Z,48.60
2023-04-20T14:38:15.667Z,48.45
2023-04-20T14:40:44.993Z,48.19
2023-04-20T14:43:12.920Z,48.12
2023-04-20T14:45:41.568Z,47.89
2023-04-20T14:48:09.483Z,47.78
2023-04-20T14:50:37.603Z,47.48
2023-04-20T14:53:05.549Z,47.62
2023-04-20T14:55:33.519Z,47.52
2023-04-20T14:58:02.948Z,47.45
2023-04-20T15:00:31.054Z,47.52
2023-04-20T15:02:59.673Z,47.57
2023-04-20T15:05:27.973Z,47.40
2023-04-20T15:07:56.002Z,47.47
2023-04-20T15:10:23.944Z,47.63
2023-04-20T15:12:51.973Z,47.73
2023-04-20T15:15:26.554Z,47.66
2023-04-20T15:17:58.141Z,47.57
2023-04-20T15:20:27.318Z,47.60
2023-04-20T15:22:55.340Z,47.58
2023-04-20T15:25:23.724Z,47.75
2023-04-20T15:27:51.856Z,47.83
2023-04-20T15:30:21.026Z,48.03
2023-04-20T15:32:50.539Z,47.85
2023-04-20T15:35:18.435Z,48.16
2023-04-20T15:37:46.494Z,48.00
2023-04-20T15:40:15.610Z,48.08
2023-04-20T15:42:43.555Z,48.14
2023-04-20T15:45:12.152Z,47.92
2023-04-20T15:47:40.083Z,47.80
2023-04-20T15:50:10.048Z,47.88
2023-04-20T15:52:37.958Z,47.89
2023-04-20T15:55:06.786Z,47.74
2023-04-20T15:57:34.773Z,47.92
2023-04-20T16:00:04.020Z,47.80
2023-04-20T16:02:32.155Z,47.77
2023-04-20T16:05:00.334Z,47.65
2023-04-20T16:07:29.879Z,47.63
2023-04-20T16:09:57.803Z,47.74
2023-04-20T16:12:25.699Z,47.67
2023-04-20T16:14:53.893Z,47.73
2023-04-20T16:17:22.224Z,47.60
2023-04-20T16:19:50.498Z,47.48
2023-04-20T16:22:18.444Z,47.44
2023-04-20T16:24:47.773Z,47.35
2023-04-20T16:27:15.892Z,47.15
2023-04-20T16:29:44.230Z,47.08
2023-04-20T16:32:12.582Z,47.45
2023-04-20T16:34:41.095Z,47.15
2023-04-20T16:37:09.078Z,47.23
2023-04-20T16:39:37.422Z,47.35
2023-04-20T16:42:06.926Z,47.39
2023-04-20T16:44:34.853Z,47.49
2023-04-20T16:47:03.069Z,47.63
2023-04-20T16:49:31.098Z,47.64
2023-04-20T16:51:59.127Z,47.70
2023-04-20T16:54:27.248Z,47.94
2023-04-20T16:56:55.960Z,47.87
2023-04-20T16:59:25.410Z,47.79
2023-04-20T17:01:56.332Z,47.98
2023-04-20T17:04:24.322Z,47.82
2023-04-20T17:06:53.002Z,47.75
2023-04-20T17:09:23.883Z,47.99
2023-04-20T17:11:52.692Z,47.89
2023-04-20T17:14:20.807Z,48.15
2023-04-20T17:16:54.028Z,48.19
2023-04-20T17:19:22.016Z,48.54
2023-04-20T17:21:49.951Z,48.80
2023-04-20T17:24:18.102Z,48.94
2023-04-20T17:26:46.410Z,48.99
2023-04-20T17:29:14.659Z,48.86
2023-04-20T17:31:42.607Z,49.02
2023-04-20T17:34:11.904Z,49.00
2023-04-20T17:36:39.767Z,49.27
2023-04-20T17:39:07.818Z,49.22
2023-04-20T17:41:35.872Z,49.21
2023-04-20T17:44:03.786Z,49.13
2023-04-20T17:46:31.847Z,49.24
2023-04-20T17:48:59.783Z,49.41
2023-04-20T17:51:29.178Z,49.24
2023-04-20T17:53:57.068Z,49.30
2023-04-20T17:56:25.092Z,49.24
2023-04-20T17:58:53.356Z,49.28
2023-04-20T18:01:21.304Z,49.41
2023-04-20T18:03:50.035Z,49.33
2023-04-20T18:06:18.097Z,49.43
2023-04-20T18:08:47.602Z,49.17
2023-04-20T18:11:15.530Z,49.36
2023-04-20T18:13:44.649Z,49.50
2023-04-20T18:16:12.627Z,49.76
2023-04-20T18:18:40.546Z,50.00
2023-04-20T18:21:09.870Z,49.95
2023-04-20T18:23:37.790Z,49.59
2023-04-20T18:26:07.561Z,49.70
2023-04-20T18:28:35.590Z,49.30
2023-04-20T18:31:03.518Z,49.65
2023-04-20T18:33:31.467Z,49.53
2023-04-20T18:35:59.410Z,49.41
2023-04-20T18:38:27.362Z,49.46
2023-04-20T18:40:55.461Z,49.65
2023-04-20T18:43:24.794Z,49.95
2023-04-20T18:45:52.711Z,50.29
2023-04-20T18:48:20.831Z,50.41
2023-04-20T18:50:49.000Z,50.66
2023-04-20T18:53:16.911Z,50.40
2023-04-20T18:55:46.600Z,50.64
2023-04-20T18:58:14.486Z,50.66
2023-04-20T19:00:43.976Z,50.60
2023-04-20T19:03:11.993Z,50.75
2023-04-20T19:05:40.173Z,50.73
2023-04-20T19:08:08.069Z,50.95
2023-04-20T19:10:36.013Z,51.36
2023-04-20T19:13:03.953Z,51.29
2023-04-20T19:15:32.089Z,51.24
2023-04-20T19:18:01.571Z,51.18
2023-04-20T19:20:29.472Z,51.49
2023-04-20T19:23:00.173Z,51.44
2023-04-20T19:25:28.290Z,51.15
2023-04-20T19:27:56.250Z,51.42
2023-04-20T19:30:24.076Z,51.75
2023-04-20T19:32:52.072Z,51.67
2023-04-20T19:35:21.464Z,51.39
2023-04-20T19:37:49.517Z,51.40
2023-04-20T19:40:19.653Z,51.49
2023-04-20T19:42:48.719Z,51.36
2023-04-20T19:45:16.645Z,51.28
2023-04-20T19:47:44.669Z,51.74
2023-04-20T19:50:13.864Z,51.68
2023-04-20T19:52:43.328Z,51.65
2023-04-20T19:55:11.463Z,51.68
2023-04-20T19:57:39.365Z,51.28
2023-04-20T20:00:09.885Z,51.30
2023-04-20T20:02:38.466Z,51.48
2023-04-20T20:05:07.157Z,51.76
2023-04-20T20:07:35.802Z,51.86
2023-04-20T20:10:06.432Z,52.20
2023-04-20T20:12:34.324Z,52.12
2023-04-20T20:15:08.817Z,52.28
2023-04-20T20:17:37.036Z,52.27
2023-04-20T20:20:07.088Z,52.69
2023-04-20T20:22:38.121Z,52.37
2023-04-20T20:25:08.603Z,52.52
2023-04-20T20:27:36.641Z,52.66
2023-04-20T20:30:05.124Z,52.42
2023-04-20T20:32:33.119Z,52.73
2023-04-20T20:35:01.033Z,52.31
2023-04-20T20:37:34.879Z,52.41
2023-04-20T20:40:06.763Z,52.22
2023-04-20T20:42:40.018Z,52.77
2023-04-20T20:45:10.842Z,52.29
2023-04-20T20:47:38.892Z,52.66
2023-04-20T20:50:08.017Z,52.75
2023-04-20T20:52:36.048Z,52.77
2023-04-20T20:55:04.096Z,52.50
2023-04-20T20:57:32.089Z,52.50
2023-04-20T21:00:01.445Z,52.58
2023-04-20T21:02:29.594Z,52.42
2023-04-20T21:04:57.759Z,52.50
2023-04-20T21:07:25.707Z,52.54
2023-04-20T21:09:53.671Z,52.19
2023-04-20T21:12:21.604Z,52.33
2023-04-20T21:14:51.338Z,52.34
2023-04-20T21:17:20.676Z,52.10
2023-04-20T21:19:48.597Z,52.41
2023-04-20T21:22:16.568Z,52.29
2023-04-20T21:24:44.537Z,52.38
2023-04-20T21:27:12.533Z,52.09
2023-04-20T21:29:40.501Z,52.65
2023-04-20T21:32:09.811Z,52.39
2023-04-20T21:34:39.170Z,52.33
2023-04-20T21:37:07.143Z,52.81
2023-04-20T21:39:35.086Z,52.72
2023-04-20T21:42:03.226Z,52.71
2023-04-20T21:44:31.153Z,52.79
2023-04-20T21:47:02.295Z,52.85
2023-04-20T21:49:30.366Z,52.97
2023-04-20T21:51:59.662Z,52.63
2023-04-20T21:54:27.578Z,52.57
2023-04-20T21:56:55.545Z,52.61
2023-04-20T21:59:23.431Z,52.88
2023-04-20T22:01:51.462Z,52.75
2023-04-20T22:04:19.547Z,53.33
2023-04-20T22:06:48.779Z,53.42
2023-04-20T22:09:18.639Z,53.13
2023-04-20T22:11:53.728Z,54.27
2023-04-20T22:14:21.636Z,54.64
2023-04-20T22:16:49.505Z,54.12
2023-04-20T22:19:17.685Z,54.56
2023-04-20T22:21:45.733Z,54.53
2023-04-20T22:24:13.684Z,54.29
2023-04-20T22:26:43.023Z,54.01
2023-04-20T22:29:10.938Z,54.28
2023-04-20T22:31:38.938Z,53.75
2023-04-20T22:34:06.984Z,54.00
2023-04-20T22:36:35.135Z,53.90
2023-04-20T22:39:03.110Z,54.27
2023-04-20T22:41:31.686Z,54.14
2023-04-20T22:44:01.024Z,54.23
2023-04-20T22:46:28.927Z,54.49
2023-04-20T22:48:58.006Z,54.61
2023-04-20T22:51:26.084Z,54.39
2023-04-20T22:53:53.971Z,54.12
2023-04-20T22:56:21.905Z,54.09
2023-04-20T22:58:49.875Z,54.39
2023-04-20T23:01:19.417Z,54.84
2023-04-20T23:03:47.648Z,54.90
2023-04-20T23:06:18.785Z,54.46
2023-04-20T23:08:46.929Z,54.80
2023-04-20T23:11:16.460Z,54.57
2023-04-20T23:13:44.463Z,54.42
2023-04-20T23:16:12.389Z,54.21
2023-04-20T23:18:41.752Z,54.06
2023-04-20T23:21:09.737Z,53.92
2023-04-20T23:23:37.758Z,53.90
2023-04-20T23:26:05.904Z,54.16
2023-04-20T23:28:33.854Z,54.04
2023-04-20T23:31:01.765Z,54.08
2023-04-20T23:33:29.671Z,53.64
2023-04-20T23:36:00.702Z,53.97
2023-04-20T23:38:28.723Z,53.93
2023-04-20T23:40:56.621Z,54.52
2023-04-20T23:43:24.675Z,54.50
2023-04-20T23:45:52.891Z,54.24
2023-04-20T23:48:20.829Z,53.96
2023-04-20T23:50:49.928Z,54.00
2023-04-20T23:53:19.264Z,54.43
2023-04-20T23:55:51.688Z,54.19
2023-04-20T23:58:19.680Z,54.43
